sensor_id;sensor_type;location;lat;lon;timestamp;pressure;altitude;pressure_sealevel;temperature;humidity
10897;BME280;5501;51.176;6.470;2023-05-12T00:00:01;100903.53;;;15.03;100.00
10897;BME280;5501;51.176;6.470;2023-05-12T00:05:11;100894.84;;;14.76;100.00
10897;BME280;5501;51.176;6.470;2023-05-12T00:10:13;100889.28;;;14.61;100.00
10897;BME280;5501;51.176;6.470;2023-05-12T00:15:14;100886.28;;;14.68;100.00
10897;BME280;5501;51.176;6.470;2023-05-12T00:20:16;100888.75;;;14.73;100.00
10897;BME280;5501;51.176;6.470;2023-05-12T00:25:17;100879.41;;;14.83;100.00
10897;BME280;5501;51.176;6.470;2023-05-12T00:30:19;100877.66;;;14.82;100.00
10897;BME280;5501;51.176;6.470;2023-05-12T00:35:21;100880.09;;;14.88;100.00
10897;BME280;5501;51.176;6.470;2023-05-12T00:40:22;100876.19;;;14.75;100.00
10897;BME280;5501;51.176;6.470;2023-05-12T00:45:24;100874.94;;;14.62;100.00
10897;BME280;5501;51.176;6.470;2023-05-12T00:50:25;100872.03;;;14.68;100.00
10897;BME280;5501;51.176;6.470;2023-05-12T00:55:28;100867.72;;;14.64;100.00
10897;BME280;5501;51.176;6.470;2023-05-12T01:00:29;100864.59;;;14.74;100.00
10897;BME280;5501;51.176;6.470;2023-05-12T01:05:34;100861.72;;;14.59;100.00
10897;BME280;5501;51.176;6.470;2023-05-12T01:10:41;100859.88;;;14.59;100.00
10897;BME280;5501;51.176;6.470;2023-05-12T01:15:44;100864.00;;;14.68;100.00
10897;BME280;5501;51.176;6.470;2023-05-12T01:20:46;100850.28;;;14.54;100.00
10897;BME280;5501;51.176;6.470;2023-05-12T01:25:48;100846.44;;;14.61;100.00
10897;BME280;5501;51.176;6.470;2023-05-12T01:30:51;100852.06;;;14.55;100.00
10897;BME280;5501;51.176;6.470;2023-05-12T01:35:52;100845.84;;;14.33;100.00
10897;BME280;5501;51.176;6.470;2023-05-12T01:40:54;100846.22;;;14.24;100.00
10897;BME280;5501;51.176;6.470;2023-05-12T01:45:56;100845.84;;;14.33;100.00
10897;BME280;5501;51.176;6.470;2023-05-12T01:50:58;100842.09;;;14.37;100.00
10897;BME280;5501;51.176;6.470;2023-05-12T01:56:00;100833.66;;;14.26;100.00
10897;BME280;5501;51.176;6.470;2023-05-12T02:01:01;100832.25;;;14.16;100.00
10897;BME280;5501;51.176;6.470;2023-05-12T02:06:03;100829.75;;;14.11;100.00
10897;BME280;5501;51.176;6.470;2023-05-12T02:11:07;100835.09;;;14.11;100.00
10897;BME280;5501;51.176;6.470;2023-05-12T02:16:10;100832.38;;;14.13;100.00
10897;BME280;5501;51.176;6.470;2023-05-12T02:21:12;100835.09;;;14.11;100.00
10897;BME280;5501;51.176;6.470;2023-05-12T02:26:13;100831.72;;;13.85;100.00
10897;BME280;5501;51.176;6.470;2023-05-12T02:31:15;100809.97;;;14.15;100.00
10897;BME280;5501;51.176;6.470;2023-05-12T02:36:16;100802.03;;;14.14;100.00
10897;BME280;5501;51.176;6.470;2023-05-12T02:41:17;100809.34;;;14.09;100.00
10897;BME280;5501;51.176;6.470;2023-05-12T02:46:19;100807.50;;;14.11;100.00
10897;BME280;5501;51.176;6.470;2023-05-12T02:51:21;100794.00;;;14.14;100.00
10897;BME280;5501;51.176;6.470;2023-05-12T02:56:23;100781.53;;;14.13;100.00
10897;BME280;5501;51.176;6.470;2023-05-12T03:01:24;100786.16;;;13.88;100.00
10897;BME280;5501;51.176;6.470;2023-05-12T03:06:26;100786.50;;;14.02;100.00
10897;BME280;5501;51.176;6.470;2023-05-12T03:11:27;100797.91;;;13.84;100.00
10897;BME280;5501;51.176;6.470;2023-05-12T03:16:28;100788.44;;;13.97;100.00
10897;BME280;5501;51.176;6.470;2023-05-12T03:21:30;100790.06;;;14.01;100.00
10897;BME280;5501;51.176;6.470;2023-05-12T03:26:32;100797.31;;;13.99;100.00
10897;BME280;5501;51.176;6.470;2023-05-12T03:31:33;100791.59;;;14.29;100.00
10897;BME280;5501;51.176;6.470;2023-05-12T03:36:35;100805.53;;;14.37;100.00
10897;BME280;5501;51.176;6.470;2023-05-12T03:41:37;100801.66;;;14.44;100.00
10897;BME280;5501;51.176;6.470;2023-05-12T03:46:39;100789.34;;;14.40;100.00
10897;BME280;5501;51.176;6.470;2023-05-12T03:51:40;100792.63;;;14.47;100.00
10897;BME280;5501;51.176;6.470;2023-05-12T03:56:42;100794.97;;;14.54;100.00
10897;BME280;5501;51.176;6.470;2023-05-12T04:01:43;100805.22;;;14.65;100.00
10897;BME280;5501;51.176;6.470;2023-05-12T04:06:45;100803.69;;;14.79;100.00
10897;BME280;5501;51.176;6.470;2023-05-12T04:11:46;100816.22;;;14.59;100.00
10897;BME280;5501;51.176;6.470;2023-05-12T04:16:48;100831.56;;;14.54;100.00
10897;BME280;5501;51.176;6.470;2023-05-12T04:21:50;100828.66;;;14.60;100.00
10897;BME280;5501;51.176;6.470;2023-05-12T04:26:52;100831.47;;;14.35;100.00
10897;BME280;5501;51.176;6.470;2023-05-12T04:31:53;100833.78;;;14.23;100.00
10897;BME280;5501;51.176;6.470;2023-05-12T04:36:56;100834.25;;;14.54;100.00
10897;BME280;5501;51.176;6.470;2023-05-12T04:41:59;100839.59;;;14.54;100.00
10897;BME280;5501;51.176;6.470;2023-05-12T04:47:04;100849.78;;;14.66;100.00
10897;BME280;5501;51.176;6.470;2023-05-12T04:52:05;100854.91;;;14.72;100.00
10897;BME280;5501;51.176;6.470;2023-05-12T04:57:07;100864.34;;;14.39;100.00
10897;BME280;5501;51.176;6.470;2023-05-12T05:02:09;100873.22;;;14.61;100.00
10897;BME280;5501;51.176;6.470;2023-05-12T05:07:10;100876.94;;;14.57;100.00
10897;BME280;5501;51.176;6.470;2023-05-12T05:12:12;100881.13;;;14.64;100.00
10897;BME280;5501;51.176;6.470;2023-05-12T05:17:13;100899.47;;;14.51;100.00
10897;BME280;5501;51.176;6.470;2023-05-12T05:22:15;100898.97;;;14.42;100.00
10897;BME280;5501;51.176;6.470;2023-05-12T05:27:18;100902.47;;;14.44;100.00
10897;BME280;5501;51.176;6.470;2023-05-12T05:32:19;100902.22;;;14.50;100.00
10897;BME280;5501;51.176;6.470;2023-05-12T05:37:22;100913.06;;;14.47;100.00
10897;BME280;5501;51.176;6.470;2023-05-12T05:42:23;100921.88;;;14.49;100.00
10897;BME280;5501;51.176;6.470;2023-05-12T05:47:26;100927.13;;;14.52;100.00
10897;BME280;5501;51.176;6.470;2023-05-12T05:52:28;100931.22;;;14.82;100.00
10897;BME280;5501;51.176;6.470;2023-05-12T05:57:30;100939.78;;;14.90;100.00
10897;BME280;5501;51.176;6.470;2023-05-12T06:02:33;100947.22;;;14.62;100.00
10897;BME280;5501;51.176;6.470;2023-05-12T06:07:34;100950.84;;;14.61;100.00
10897;BME280;5501;51.176;6.470;2023-05-12T06:12:37;100963.16;;;14.65;100.00
10897;BME280;5501;51.176;6.470;2023-05-12T06:17:40;100976.16;;;14.74;100.00
10897;BME280;5501;51.176;6.470;2023-05-12T06:22:42;100977.59;;;14.61;100.00
10897;BME280;5501;51.176;6.470;2023-05-12T06:27:44;100983.13;;;14.78;100.00
10897;BME280;5501;51.176;6.470;2023-05-12T06:32:46;100989.63;;;14.72;100.00
10897;BME280;5501;51.176;6.470;2023-05-12T06:37:47;100985.53;;;14.85;100.00
10897;BME280;5501;51.176;6.470;2023-05-12T06:42:51;100994.63;;;14.81;100.00
10897;BME280;5501;51.176;6.470;2023-05-12T06:47:53;100999.47;;;14.93;100.00
10897;BME280;5501;51.176;6.470;2023-05-12T06:52:55;101001.31;;;15.13;100.00
10897;BME280;5501;51.176;6.470;2023-05-12T06:57:57;100999.31;;;15.18;100.00
10897;BME280;5501;51.176;6.470;2023-05-12T07:02:58;101008.91;;;15.02;100.00
10897;BME280;5501;51.176;6.470;2023-05-12T07:08:00;101008.00;;;15.03;100.00
10897;BME280;5501;51.176;6.470;2023-05-12T07:13:01;101011.53;;;15.25;100.00
10897;BME280;5501;51.176;6.470;2023-05-12T07:18:02;101018.00;;;15.41;100.00
10897;BME280;5501;51.176;6.470;2023-05-12T07:23:04;101019.22;;;15.54;100.00
10897;BME280;5501;51.176;6.470;2023-05-12T07:28:05;101017.22;;;15.59;100.00
10897;BME280;5501;51.176;6.470;2023-05-12T07:33:07;101018.69;;;15.66;100.00
10897;BME280;5501;51.176;6.470;2023-05-12T07:38:09;101024.25;;;15.62;100.00
10897;BME280;5501;51.176;6.470;2023-05-12T07:43:10;101027.03;;;15.60;100.00
10897;BME280;5501;51.176;6.470;2023-05-12T07:48:12;101034.06;;;15.63;100.00
10897;BME280;5501;51.176;6.470;2023-05-12T07:53:13;101035.25;;;15.56;100.00
10897;BME280;5501;51.176;6.470;2023-05-12T07:58:15;101039.41;;;15.63;100.00
10897;BME280;5501;51.176;6.470;2023-05-12T08:03:16;101036.25;;;15.73;100.00
10897;BME280;5501;51.176;6.470;2023-05-12T08:08:18;101040.94;;;15.88;99.36
10897;BME280;5501;51.176;6.470;2023-05-12T08:13:19;101056.22;;;16.06;100.00
10897;BME280;5501;51.176;6.470;2023-05-12T08:18:20;101056.19;;;16.26;96.67
10897;BME280;5501;51.176;6.470;2023-05-12T08:23:22;101057.41;;;16.19;95.57
10897;BME280;5501;51.176;6.470;2023-05-12T08:28:23;101062.34;;;16.28;95.31
10897;BME280;5501;51.176;6.470;2023-05-12T08:33:25;101067.59;;;16.31;94.94
10897;BME280;5501;51.176;6.470;2023-05-12T08:38:26;101070.22;;;16.71;92.90
10897;BME280;5501;51.176;6.470;2023-05-12T08:43:50;101075.28;;;16.77;91.98
10897;BME280;5501;51.176;6.470;2023-05-12T08:48:50;101081.22;;;17.02;90.16
10897;BME280;5501;51.176;6.470;2023-05-12T08:53:52;101090.16;;;16.84;88.47
10897;BME280;5501;51.176;6.470;2023-05-12T08:58:55;101080.28;;;17.03;89.41
10897;BME280;5501;51.176;6.470;2023-05-12T09:03:57;101086.06;;;17.31;88.34
10897;BME280;5501;51.176;6.470;2023-05-12T09:08:58;101088.19;;;17.60;83.20
10897;BME280;5501;51.176;6.470;2023-05-12T09:14:01;101100.97;;;17.91;81.00
10897;BME280;5501;51.176;6.470;2023-05-12T09:19:04;101089.38;;;17.72;82.65
10897;BME280;5501;51.176;6.470;2023-05-12T09:24:07;101097.78;;;18.00;82.09
10897;BME280;5501;51.176;6.470;2023-05-12T09:29:09;101104.59;;;18.07;79.34
10897;BME280;5501;51.176;6.470;2023-05-12T09:34:31;101095.72;;;18.39;79.80
10897;BME280;5501;51.176;6.470;2023-05-12T09:39:33;101098.66;;;18.34;77.16
10897;BME280;5501;51.176;6.470;2023-05-12T09:44:35;101117.00;;;18.26;78.52
10897;BME280;5501;51.176;6.470;2023-05-12T09:49:44;101097.19;;;18.27;78.45
10897;BME280;5501;51.176;6.470;2023-05-12T09:54:46;101116.53;;;18.35;77.07
10897;BME280;5501;51.176;6.470;2023-05-12T09:59:47;101113.69;;;18.38;76.09
10897;BME280;5501;51.176;6.470;2023-05-12T10:04:51;101120.44;;;18.62;74.86
10897;BME280;5501;51.176;6.470;2023-05-12T10:09:55;101132.69;;;19.00;74.12
10897;BME280;5501;51.176;6.470;2023-05-12T10:14:57;101125.78;;;19.27;72.59
10897;BME280;5501;51.176;6.470;2023-05-12T10:20:00;101125.16;;;19.38;71.65
10897;BME280;5501;51.176;6.470;2023-05-12T10:25:01;101124.72;;;19.30;73.46
10897;BME280;5501;51.176;6.470;2023-05-12T10:30:03;101123.84;;;19.29;71.35
10897;BME280;5501;51.176;6.470;2023-05-12T10:35:06;101113.88;;;19.76;67.37
10897;BME280;5501;51.176;6.470;2023-05-12T10:40:07;101124.63;;;19.92;67.48
10897;BME280;5501;51.176;6.470;2023-05-12T10:45:17;101117.66;;;19.88;66.49
10897;BME280;5501;51.176;6.470;2023-05-12T10:50:26;101113.03;;;20.20;65.78
10897;BME280;5501;51.176;6.470;2023-05-12T10:55:33;101124.78;;;20.05;65.88
10897;BME280;5501;51.176;6.470;2023-05-12T11:00:44;101113.97;;;20.05;63.69
10897;BME280;5501;51.176;6.470;2023-05-12T11:05:56;101117.78;;;20.16;63.93
10897;BME280;5501;51.176;6.470;2023-05-12T11:11:00;101118.59;;;20.32;63.34
10897;BME280;5501;51.176;6.470;2023-05-12T11:16:01;101122.56;;;20.41;62.47
10897;BME280;5501;51.176;6.470;2023-05-12T11:21:09;101122.34;;;20.44;59.81
10897;BME280;5501;51.176;6.470;2023-05-12T11:26:15;101115.03;;;20.46;60.57
10897;BME280;5501;51.176;6.470;2023-05-12T11:31:17;101123.13;;;20.60;60.11
10897;BME280;5501;51.176;6.470;2023-05-12T11:36:20;101124.22;;;20.57;60.71
10897;BME280;5501;51.176;6.470;2023-05-12T11:41:22;101118.94;;;20.98;56.61
10897;BME280;5501;51.176;6.470;2023-05-12T11:46:27;101115.59;;;21.21;55.66
10897;BME280;5501;51.176;6.470;2023-05-12T11:51:30;101128.44;;;21.58;52.00
10897;BME280;5501;51.176;6.470;2023-05-12T11:56:32;101125.97;;;21.67;55.30
10897;BME280;5501;51.176;6.470;2023-05-12T12:01:42;101137.41;;;21.46;64.83
10897;BME280;5501;51.176;6.470;2023-05-12T12:06:44;101125.69;;;20.77;67.74
10897;BME280;5501;51.176;6.470;2023-05-12T12:11:45;101134.38;;;19.94;71.15
10897;BME280;5501;51.176;6.470;2023-05-12T12:16:47;101148.00;;;19.77;69.31
10897;BME280;5501;51.176;6.470;2023-05-12T12:21:48;101141.03;;;19.73;72.31
10897;BME280;5501;51.176;6.470;2023-05-12T12:26:50;101147.16;;;19.46;72.26
10897;BME280;5501;51.176;6.470;2023-05-12T12:31:51;101159.31;;;19.06;73.97
10897;BME280;5501;51.176;6.470;2023-05-12T12:36:53;101165.41;;;19.10;75.49
10897;BME280;5501;51.176;6.470;2023-05-12T12:41:54;101164.44;;;19.11;73.96
10897;BME280;5501;51.176;6.470;2023-05-12T12:46:56;101160.44;;;19.02;73.30
10897;BME280;5501;51.176;6.470;2023-05-12T12:51:57;101171.66;;;19.10;71.70
10897;BME280;5501;51.176;6.470;2023-05-12T12:56:59;101169.22;;;19.06;70.95
10897;BME280;5501;51.176;6.470;2023-05-12T13:02:00;101168.34;;;19.05;72.73
10897;BME280;5501;51.176;6.470;2023-05-12T13:07:02;101161.06;;;19.07;71.24
10897;BME280;5501;51.176;6.470;2023-05-12T13:12:04;101162.66;;;19.27;72.74
10897;BME280;5501;51.176;6.470;2023-05-12T13:17:05;101165.97;;;19.32;69.39
10897;BME280;5501;51.176;6.470;2023-05-12T13:22:08;101156.66;;;19.37;72.05
10897;BME280;5501;51.176;6.470;2023-05-12T13:27:10;101156.91;;;19.48;71.44
10897;BME280;5501;51.176;6.470;2023-05-12T13:32:12;101157.72;;;19.50;70.86
10897;BME280;5501;51.176;6.470;2023-05-12T13:37:13;101140.03;;;19.60;69.95
10897;BME280;5501;51.176;6.470;2023-05-12T13:42:15;101147.00;;;20.24;66.80
10897;BME280;5501;51.176;6.470;2023-05-12T13:47:17;101150.50;;;20.26;68.13
10897;BME280;5501;51.176;6.470;2023-05-12T13:52:19;101139.19;;;20.63;66.65
10897;BME280;5501;51.176;6.470;2023-05-12T13:57:20;101143.63;;;20.78;67.14
10897;BME280;5501;51.176;6.470;2023-05-12T14:02:22;101145.53;;;20.48;66.41
10897;BME280;5501;51.176;6.470;2023-05-12T14:07:23;101150.03;;;20.33;67.35
10897;BME280;5501;51.176;6.470;2023-05-12T14:12:25;101149.94;;;20.35;66.61
10897;BME280;5501;51.176;6.470;2023-05-12T14:17:27;101143.38;;;20.25;67.55
10897;BME280;5501;51.176;6.470;2023-05-12T14:22:28;101144.28;;;20.10;67.69
10897;BME280;5501;51.176;6.470;2023-05-12T14:27:29;101149.84;;;20.22;66.44
10897;BME280;5501;51.176;6.470;2023-05-12T14:32:31;101147.00;;;20.24;67.30
10897;BME280;5501;51.176;6.470;2023-05-12T14:37:34;101146.38;;;20.05;67.62
10897;BME280;5501;51.176;6.470;2023-05-12T14:42:35;101151.28;;;19.98;67.28
10897;BME280;5501;51.176;6.470;2023-05-12T14:47:37;101153.34;;;19.93;67.58
10897;BME280;5501;51.176;6.470;2023-05-12T14:52:38;101154.91;;;20.13;68.75
10897;BME280;5501;51.176;6.470;2023-05-12T14:57:40;101154.53;;;20.19;67.04
10897;BME280;5501;51.176;6.470;2023-05-12T15:02:42;101159.81;;;20.50;66.60
10897;BME280;5501;51.176;6.470;2023-05-12T15:07:44;101167.22;;;20.32;68.36
10897;BME280;5501;51.176;6.470;2023-05-12T15:12:46;101160.75;;;20.35;69.54
10897;BME280;5501;51.176;6.470;2023-05-12T15:17:47;101163.84;;;20.43;67.92
10897;BME280;5501;51.176;6.470;2023-05-12T15:22:49;101170.75;;;20.19;70.65
10897;BME280;5501;51.176;6.470;2023-05-12T15:27:50;101170.81;;;20.33;69.23
10897;BME280;5501;51.176;6.470;2023-05-12T15:32:52;101168.09;;;20.33;70.06
10897;BME280;5501;51.176;6.470;2023-05-12T15:37:53;101156.88;;;20.25;71.11
10897;BME280;5501;51.176;6.470;2023-05-12T15:42:54;101161.66;;;20.20;68.87
10897;BME280;5501;51.176;6.470;2023-05-12T15:47:56;101166.75;;;20.40;68.93
10897;BME280;5501;51.176;6.470;2023-05-12T15:52:58;101169.44;;;20.40;69.29
10897;BME280;5501;51.176;6.470;2023-05-12T15:57:59;101166.47;;;20.30;70.28
10897;BME280;5501;51.176;6.470;2023-05-12T16:03:01;101176.16;;;20.19;69.83
10897;BME280;5501;51.176;6.470;2023-05-12T16:08:03;101199.69;;;20.17;72.53
10897;BME280;5501;51.176;6.470;2023-05-12T16:13:04;101216.28;;;19.33;75.28
10897;BME280;5501;51.176;6.470;2023-05-12T16:18:06;101198.84;;;18.90;78.48
10897;BME280;5501;51.176;6.470;2023-05-12T16:23:11;101190.13;;;19.18;77.39
10897;BME280;5501;51.176;6.470;2023-05-12T16:28:12;101190.81;;;19.21;79.55
10897;BME280;5501;51.176;6.470;2023-05-12T16:33:14;101198.56;;;18.79;75.77
10897;BME280;5501;51.176;6.470;2023-05-12T16:38:16;101185.53;;;18.87;72.38
10897;BME280;5501;51.176;6.470;2023-05-12T16:43:17;101180.81;;;18.75;71.93
10897;BME280;5501;51.176;6.470;2023-05-12T16:48:19;101188.84;;;18.92;70.50
10897;BME280;5501;51.176;6.470;2023-05-12T16:53:20;101180.13;;;18.87;70.95
10897;BME280;5501;51.176;6.470;2023-05-12T16:58:22;101189.28;;;19.00;70.35
10897;BME280;5501;51.176;6.470;2023-05-12T17:03:23;101194.59;;;18.86;67.48
10897;BME280;5501;51.176;6.470;2023-05-12T17:08:26;101200.00;;;18.69;67.27
10897;BME280;5501;51.176;6.470;2023-05-12T17:13:27;101196.06;;;18.92;65.30
10897;BME280;5501;51.176;6.470;2023-05-12T17:18:29;101206.03;;;18.74;66.91
10897;BME280;5501;51.176;6.470;2023-05-12T17:23:31;101210.00;;;18.67;66.03
10897;BME280;5501;51.176;6.470;2023-05-12T17:28:32;101208.09;;;18.69;66.10
10897;BME280;5501;51.176;6.470;2023-05-12T17:33:33;101201.22;;;18.47;66.10
10897;BME280;5501;51.176;6.470;2023-05-12T17:38:35;101215.47;;;18.49;66.51
10897;BME280;5501;51.176;6.470;2023-05-12T17:43:37;101216.66;;;18.60;66.32
10897;BME280;5501;51.176;6.470;2023-05-12T17:48:38;101218.63;;;18.57;67.35
10897;BME280;5501;51.176;6.470;2023-05-12T17:53:40;101220.91;;;18.64;67.41
10897;BME280;5501;51.176;6.470;2023-05-12T17:58:41;101211.09;;;18.63;68.73
10897;BME280;5501;51.176;6.470;2023-05-12T18:03:42;101224.22;;;18.86;67.09
10897;BME280;5501;51.176;6.470;2023-05-12T18:08:44;101231.25;;;18.73;68.71
10897;BME280;5501;51.176;6.470;2023-05-12T18:13:46;101245.47;;;18.75;68.66
10897;BME280;5501;51.176;6.470;2023-05-12T18:18:48;101252.69;;;18.58;70.08
10897;BME280;5501;51.176;6.470;2023-05-12T18:23:50;101249.94;;;18.59;71.52
10897;BME280;5501;51.176;6.470;2023-05-12T18:28:51;101256.47;;;18.20;72.33
10897;BME280;5501;51.176;6.470;2023-05-12T18:33:53;101263.03;;;18.14;73.89
10897;BME280;5501;51.176;6.470;2023-05-12T18:38:54;101261.16;;;18.16;74.98
10897;BME280;5501;51.176;6.470;2023-05-12T18:43:55;101260.81;;;18.05;75.52
10897;BME280;5501;51.176;6.470;2023-05-12T18:48:57;101268.13;;;18.20;74.23
10897;BME280;5501;51.176;6.470;2023-05-12T18:53:58;101255.13;;;17.93;74.32
10897;BME280;5501;51.176;6.470;2023-05-12T18:59:00;101259.66;;;17.92;75.38
10897;BME280;5501;51.176;6.470;2023-05-12T19:04:01;101262.78;;;17.83;75.69
10897;BME280;5501;51.176;6.470;2023-05-12T19:09:03;101273.56;;;17.46;79.95
10897;BME280;5501;51.176;6.470;2023-05-12T19:14:05;101278.81;;;17.49;79.17
10897;BME280;5501;51.176;6.470;2023-05-12T19:19:07;101279.50;;;17.34;79.34
10897;BME280;5501;51.176;6.470;2023-05-12T19:24:08;101286.00;;;17.10;80.94
10897;BME280;5501;51.176;6.470;2023-05-12T19:29:10;101291.53;;;17.07;84.81
10897;BME280;5501;51.176;6.470;2023-05-12T19:34:12;101289.75;;;17.06;84.53
10897;BME280;5501;51.176;6.470;2023-05-12T19:39:13;101298.31;;;17.34;81.30
10897;BME280;5501;51.176;6.470;2023-05-12T19:44:15;101312.47;;;17.19;81.57
10897;BME280;5501;51.176;6.470;2023-05-12T19:49:16;101314.91;;;17.05;82.71
10897;BME280;5501;51.176;6.470;2023-05-12T19:54:18;101317.84;;;17.19;82.09
10897;BME280;5501;51.176;6.470;2023-05-12T19:59:19;101321.03;;;17.09;83.06
10897;BME280;5501;51.176;6.470;2023-05-12T20:04:21;101333.72;;;16.85;84.78
10897;BME280;5501;51.176;6.470;2023-05-12T20:09:23;101334.84;;;16.80;85.24
10897;BME280;5501;51.176;6.470;2023-05-12T20:14:27;101342.91;;;16.80;85.48
10897;BME280;5501;51.176;6.470;2023-05-12T20:19:29;101361.38;;;16.67;86.50
10897;BME280;5501;51.176;6.470;2023-05-12T20:24:31;101357.88;;;16.65;87.19
10897;BME280;5501;51.176;6.470;2023-05-12T20:29:36;101360.88;;;16.58;86.87
10897;BME280;5501;51.176;6.470;2023-05-12T20:34:38;101368.78;;;16.62;86.97
10897;BME280;5501;51.176;6.470;2023-05-12T20:39:39;101370.59;;;16.39;89.13
10897;BME280;5501;51.176;6.470;2023-05-12T20:44:41;101369.94;;;16.34;88.75
10897;BME280;5501;51.176;6.470;2023-05-12T20:49:42;101368.00;;;16.16;91.01
10897;BME280;5501;51.176;6.470;2023-05-12T20:54:45;101370.38;;;16.23;91.10
10897;BME280;5501;51.176;6.470;2023-05-12T20:59:46;101369.91;;;16.12;90.62
10897;BME280;5501;51.176;6.470;2023-05-12T21:04:48;101373.44;;;16.14;90.92
10897;BME280;5501;51.176;6.470;2023-05-12T21:09:50;101383.91;;;15.99;90.84
10897;BME280;5501;51.176;6.470;2023-05-12T21:14:52;101378.41;;;15.31;94.72
10897;BME280;5501;51.176;6.470;2023-05-12T21:19:53;101371.84;;;15.41;95.10
10897;BME280;5501;51.176;6.470;2023-05-12T21:24:54;101369.19;;;15.64;92.77
10897;BME280;5501;51.176;6.470;2023-05-12T21:29:56;101369.50;;;15.55;92.89
10897;BME280;5501;51.176;6.470;2023-05-12T21:34:58;101377.19;;;15.87;91.73
10897;BME280;5501;51.176;6.470;2023-05-12T21:39:59;101376.34;;;15.87;91.25
10897;BME280;5501;51.176;6.470;2023-05-12T21:45:01;101373.56;;;15.88;90.99
10897;BME280;5501;51.176;6.470;2023-05-12T21:50:02;101374.28;;;15.70;92.11
10897;BME280;5501;51.176;6.470;2023-05-12T21:55:04;101371.91;;;15.63;92.12
10897;BME280;5501;51.176;6.470;2023-05-12T22:00:06;101369.81;;;15.71;91.93
10897;BME280;5501;51.176;6.470;2023-05-12T22:05:09;101377.91;;;15.69;91.95
10897;BME280;5501;51.176;6.470;2023-05-12T22:10:11;101370.59;;;15.96;91.00
10897;BME280;5501;51.176;6.470;2023-05-12T22:15:13;101375.03;;;15.74;91.43
10897;BME280;5501;51.176;6.470;2023-05-12T22:20:14;101373.81;;;15.82;91.80
10897;BME280;5501;51.176;6.470;2023-05-12T22:25:17;101377.38;;;15.60;92.30
10897;BME280;5501;51.176;6.470;2023-05-12T22:30:18;101385.78;;;15.01;95.98
10897;BME280;5501;51.176;6.470;2023-05-12T22:35:20;101380.50;;;15.23;93.35
10897;BME280;5501;51.176;6.470;2023-05-12T22:40:22;101379.69;;;15.21;93.20
10897;BME280;5501;51.176;6.470;2023-05-12T22:45:23;101381.66;;;15.16;93.68
10897;BME280;5501;51.176;6.470;2023-05-12T22:50:26;101377.06;;;15.19;93.10
10897;BME280;5501;51.176;6.470;2023-05-12T22:55:27;101384.41;;;15.14;93.46
10897;BME280;5501;51.176;6.470;2023-05-12T23:00:31;101377.59;;;15.04;94.32
10897;BME280;5501;51.176;6.470;2023-05-12T23:05:32;101369.72;;;15.24;93.81
10897;BME280;5501;51.176;6.470;2023-05-12T23:10:34;101364.84;;;15.37;93.11
10897;BME280;5501;51.176;6.470;2023-05-12T23:15:35;101371.94;;;15.38;92.58
10897;BME280;5501;51.176;6.470;2023-05-12T23:20:36;101375.44;;;15.40;92.71
10897;BME280;5501;51.176;6.470;2023-05-12T23:25:38;101381.09;;;15.56;92.03
10897;BME280;5501;51.176;6.470;2023-05-12T23:30:39;101372.78;;;15.14;93.02
10897;BME280;5501;51.176;6.470;2023-05-12T23:35:43;101373.34;;;15.23;94.00
10897;BME280;5501;51.176;6.470;2023-05-12T23:40:44;101362.84;;;14.93;94.67
10897;BME280;5501;51.176;6.470;2023-05-12T23:45:46;101367.75;;;14.80;97.10
10897;BME280;5501;51.176;6.470;2023-05-12T23:50:47;101377.38;;;14.86;96.19
10897;BME280;5501;51.176;6.470;2023-05-12T23:55:48;101370.56;;;15.02;95.69
